sensor_id;sensor_type;location;lat;lon;timestamp;pressure;altitude;pressure_sealevel;temperature;humidity
55315;BME280;41619;42.816;23.226;2022-07-29T00:01:29;95673.97;;;17.75;73.13
55315;BME280;41619;42.816;23.226;2022-07-29T00:03:54;95683.81;;;17.80;72.93
55315;BME280;41619;42.816;23.226;2022-07-29T00:06:20;95687.41;;;17.77;73.12
55315;BME280;41619;42.816;23.226;2022-07-29T00:08:46;95691.34;;;17.76;73.19
55315;BME280;41619;42.816;23.226;2022-07-29T00:11:11;95690.56;;;17.75;73.11
55315;BME280;41619;42.816;23.226;2022-07-29T00:13:37;95683.50;;;17.71;73.25
55315;BME280;41619;42.816;23.226;2022-07-29T00:16:03;95685.06;;;17.72;73.27
55315;BME280;41619;42.816;23.226;2022-07-29T00:18:28;95683.09;;;17.72;73.34
55315;BME280;41619;42.816;23.226;2022-07-29T00:20:54;95674.81;;;17.69;73.41
55315;BME280;41619;42.816;23.226;2022-07-29T00:23:19;95681.91;;;17.70;73.46
55315;BME280;41619;42.816;23.226;2022-07-29T00:25:45;95683.09;;;17.72;73.60
55315;BME280;41619;42.816;23.226;2022-07-29T00:28:10;95683.09;;;17.72;73.74
55315;BME280;41619;42.816;23.226;2022-07-29T00:30:35;95687.84;;;17.72;73.60
55315;BME280;41619;42.816;23.226;2022-07-29T00:33:01;95687.03;;;17.71;73.56
55315;BME280;41619;42.816;23.226;2022-07-29T00:35:26;95686.66;;;17.69;73.68
55315;BME280;41619;42.816;23.226;2022-07-29T00:38:16;95680.72;;;17.71;73.69
55315;BME280;41619;42.816;23.226;2022-07-29T00:40:42;95666.50;;;17.69;73.57
55315;BME280;41619;42.816;23.226;2022-07-29T00:43:08;95670.06;;;17.69;73.71
55315;BME280;41619;42.816;23.226;2022-07-29T00:45:34;95661.34;;;17.67;73.61
55315;BME280;41619;42.816;23.226;2022-07-29T00:48:00;95662.94;;;17.68;73.79
55315;BME280;41619;42.816;23.226;2022-07-29T00:50:26;95658.19;;;17.69;74.00
55315;BME280;41619;42.816;23.226;2022-07-29T00:52:52;95662.94;;;17.68;73.94
55315;BME280;41619;42.816;23.226;2022-07-29T00:55:18;95663.31;;;17.70;73.68
55315;BME280;41619;42.816;23.226;2022-07-29T00:57:44;95657.78;;;17.70;73.79
55315;BME280;41619;42.816;23.226;2022-07-29T01:00:14;95659.00;;;17.69;73.45
55315;BME280;41619;42.816;23.226;2022-07-29T01:02:39;95650.28;;;17.71;73.33
55315;BME280;41619;42.816;23.226;2022-07-29T01:05:05;95645.53;;;17.71;73.54
55315;BME280;41619;42.816;23.226;2022-07-29T01:07:33;95636.06;;;17.69;73.31
55315;BME280;41619;42.816;23.226;2022-07-29T01:10:01;95643.13;;;17.66;73.26
55315;BME280;41619;42.816;23.226;2022-07-29T01:12:28;95647.16;;;17.58;73.02
55315;BME280;41619;42.816;23.226;2022-07-29T01:14:58;95637.34;;;17.50;73.21
55315;BME280;41619;42.816;23.226;2022-07-29T01:17:27;95633.03;;;17.42;73.32
55315;BME280;41619;42.816;23.226;2022-07-29T01:28:47;95623.25;;;17.26;73.75
55315;BME280;41619;42.816;23.226;2022-07-29T01:31:28;95625.31;;;17.12;73.70
55315;BME280;41619;42.816;23.226;2022-07-29T01:34:04;95623.41;;;16.98;74.08
55315;BME280;41619;42.816;23.226;2022-07-29T01:39:32;95628.25;;;16.65;74.38
55315;BME280;41619;42.816;23.226;2022-07-29T01:42:12;95619.19;;;16.61;74.84
55315;BME280;41619;42.816;23.226;2022-07-29T01:44:41;95626.66;;;16.64;74.82
55315;BME280;41619;42.816;23.226;2022-07-29T01:47:15;95616.41;;;16.69;74.85
55315;BME280;41619;42.816;23.226;2022-07-29T01:49:46;95619.94;;;16.73;74.96
55315;BME280;41619;42.816;23.226;2022-07-29T01:52:46;95624.28;;;16.77;74.84
55315;BME280;41619;42.816;23.226;2022-07-29T01:55:15;95624.69;;;16.79;75.09
55315;BME280;41619;42.816;23.226;2022-07-29T01:57:44;95641.25;;;16.83;75.11
55315;BME280;41619;42.816;23.226;2022-07-29T02:00:11;95637.28;;;16.84;75.11
55315;BME280;41619;42.816;23.226;2022-07-29T02:02:39;95635.69;;;16.86;75.13
55315;BME280;41619;42.816;23.226;2022-07-29T02:05:07;95628.19;;;16.87;75.17
55315;BME280;41619;42.816;23.226;2022-07-29T02:07:36;95633.72;;;16.87;75.21
55315;BME280;41619;42.816;23.226;2022-07-29T02:10:04;95621.84;;;16.90;75.33
55315;BME280;41619;42.816;23.226;2022-07-29T02:12:32;95624.63;;;16.93;75.54
55315;BME280;41619;42.816;23.226;2022-07-29T02:15:00;95619.84;;;16.98;75.44
55315;BME280;41619;42.816;23.226;2022-07-29T02:17:31;95608.41;;;16.95;75.46
55315;BME280;41619;42.816;23.226;2022-07-29T02:20:00;95619.03;;;17.04;75.56
55315;BME280;41619;42.816;23.226;2022-07-29T02:22:26;95612.28;;;17.09;75.59
55315;BME280;41619;42.816;23.226;2022-07-29T02:24:55;95617.81;;;17.12;75.40
55315;BME280;41619;42.816;23.226;2022-07-29T02:27:22;95611.88;;;17.10;75.24
55315;BME280;41619;42.816;23.226;2022-07-29T02:29:50;95612.28;;;17.12;75.19
55315;BME280;41619;42.816;23.226;2022-07-29T02:32:17;95617.81;;;17.12;75.16
55315;BME280;41619;42.816;23.226;2022-07-29T02:34:44;95620.56;;;17.16;75.09
55315;BME280;41619;42.816;23.226;2022-07-29T02:37:11;95619.78;;;17.15;75.00
55315;BME280;41619;42.816;23.226;2022-07-29T02:39:39;95619.38;;;17.17;75.17
55315;BME280;41619;42.816;23.226;2022-07-29T02:42:08;95607.91;;;17.18;75.04
55315;BME280;41619;42.816;23.226;2022-07-29T02:44:35;95604.72;;;17.20;74.91
55315;BME280;41619;42.816;23.226;2022-07-29T02:47:17;95605.50;;;17.20;75.17
55315;BME280;41619;42.816;23.226;2022-07-29T02:49:57;95606.69;;;17.19;74.96
55315;BME280;41619;42.816;23.226;2022-07-29T02:55:34;95614.19;;;17.22;75.09
55315;BME280;41619;42.816;23.226;2022-07-29T02:58:10;95620.50;;;17.23;74.80
55315;BME280;41619;42.816;23.226;2022-07-29T03:00:39;95618.56;;;17.20;75.03
55315;BME280;41619;42.816;23.226;2022-07-29T03:03:10;95618.91;;;17.25;75.01
55315;BME280;41619;42.816;23.226;2022-07-29T03:05:36;95621.66;;;17.25;74.87
55315;BME280;41619;42.816;23.226;2022-07-29T03:08:04;95614.94;;;17.26;75.21
55315;BME280;41619;42.816;23.226;2022-07-29T03:10:31;95614.53;;;17.28;74.92
55315;BME280;41619;42.816;23.226;2022-07-29T03:12:58;95613.34;;;17.29;75.05
55315;BME280;41619;42.816;23.226;2022-07-29T03:15:25;95596.38;;;17.27;75.03
55315;BME280;41619;42.816;23.226;2022-07-29T03:17:51;95601.50;;;17.29;75.02
55315;BME280;41619;42.816;23.226;2022-07-29T03:20:17;95600.72;;;17.28;74.98
55315;BME280;41619;42.816;23.226;2022-07-29T03:22:44;95591.63;;;17.27;75.03
55315;BME280;41619;42.816;23.226;2022-07-29T03:25:13;95592.81;;;17.26;75.06
55315;BME280;41619;42.816;23.226;2022-07-29T03:27:39;95603.09;;;17.30;75.08
55315;BME280;41619;42.816;23.226;2022-07-29T03:30:06;95617.31;;;17.32;74.95
55315;BME280;41619;42.816;23.226;2022-07-29T03:32:32;95603.84;;;17.34;74.94
55315;BME280;41619;42.816;23.226;2022-07-29T03:34:58;95610.56;;;17.29;74.97
55315;BME280;41619;42.816;23.226;2022-07-29T03:37:23;95609.44;;;17.23;75.06
55315;BME280;41619;42.816;23.226;2022-07-29T03:39:51;95608.72;;;17.15;75.16
55315;BME280;41619;42.816;23.226;2022-07-29T03:42:19;95610.72;;;17.11;75.21
55315;BME280;41619;42.816;23.226;2022-07-29T03:44:47;95614.25;;;17.15;75.65
55315;BME280;41619;42.816;23.226;2022-07-29T03:47:15;95631.56;;;17.23;75.65
55315;BME280;41619;42.816;23.226;2022-07-29T03:49:44;95618.50;;;17.31;75.41
55315;BME280;41619;42.816;23.226;2022-07-29T03:52:13;95613.31;;;17.36;75.26
55315;BME280;41619;42.816;23.226;2022-07-29T03:54:39;95630.63;;;17.47;75.36
55315;BME280;41619;42.816;23.226;2022-07-29T03:57:05;95627.03;;;17.54;75.43
55315;BME280;41619;42.816;23.226;2022-07-29T03:59:32;95622.25;;;17.58;75.27
55315;BME280;41619;42.816;23.226;2022-07-29T04:02:00;95630.94;;;17.60;75.12
55315;BME280;41619;42.816;23.226;2022-07-29T04:04:27;95624.59;;;17.63;74.88
55315;BME280;41619;42.816;23.226;2022-07-29T04:06:53;95628.13;;;17.67;75.17
55315;BME280;41619;42.816;23.226;2022-07-29T04:09:18;95627.72;;;17.72;74.93
55315;BME280;41619;42.816;23.226;2022-07-29T04:11:44;95627.28;;;17.77;74.87
55315;BME280;41619;42.816;23.226;2022-07-29T04:14:10;95624.84;;;17.83;74.89
55315;BME280;41619;42.816;23.226;2022-07-29T04:16:35;95629.19;;;17.88;74.75
55315;BME280;41619;42.816;23.226;2022-07-29T04:19:01;95612.56;;;17.88;74.62
55315;BME280;41619;42.816;23.226;2022-07-29T04:21:27;95625.16;;;17.96;74.63
55315;BME280;41619;42.816;23.226;2022-07-29T04:23:52;95625.13;;;17.99;74.47
55315;BME280;41619;42.816;23.226;2022-07-29T04:26:18;95626.69;;;18.04;74.35
55315;BME280;41619;42.816;23.226;2022-07-29T04:28:44;95630.63;;;18.06;74.37
55315;BME280;41619;42.816;23.226;2022-07-29T04:31:11;95631.72;;;18.12;74.21
55315;BME280;41619;42.816;23.226;2022-07-29T04:33:37;95634.06;;;18.17;74.02
55315;BME280;41619;42.816;23.226;2022-07-29T04:36:03;95636.41;;;18.23;73.94
55315;BME280;41619;42.816;23.226;2022-07-29T04:38:28;95636.78;;;18.25;74.08
55315;BME280;41619;42.816;23.226;2022-07-29T04:40:53;95645.00;;;18.32;74.03
55315;BME280;41619;42.816;23.226;2022-07-29T04:43:19;95648.91;;;18.38;73.84
55315;BME280;41619;42.816;23.226;2022-07-29T04:45:45;95653.63;;;18.41;73.89
55315;BME280;41619;42.816;23.226;2022-07-29T04:48:10;95654.44;;;18.41;73.60
55315;BME280;41619;42.816;23.226;2022-07-29T04:50:38;95662.69;;;18.45;73.56
55315;BME280;41619;42.816;23.226;2022-07-29T04:53:04;95660.25;;;18.51;73.40
55315;BME280;41619;42.816;23.226;2022-07-29T04:55:30;95651.91;;;18.54;73.57
55315;BME280;41619;42.816;23.226;2022-07-29T04:57:55;95657.81;;;18.60;73.42
55315;BME280;41619;42.816;23.226;2022-07-29T05:00:21;95655.81;;;18.64;73.34
55315;BME280;41619;42.816;23.226;2022-07-29T05:02:48;95655.38;;;18.65;73.16
55315;BME280;41619;42.816;23.226;2022-07-29T05:05:14;95654.56;;;18.68;72.85
55315;BME280;41619;42.816;23.226;2022-07-29T05:07:39;95656.53;;;18.68;72.92
55315;BME280;41619;42.816;23.226;2022-07-29T05:10:05;95654.09;;;18.73;72.83
55315;BME280;41619;42.816;23.226;2022-07-29T05:12:30;95649.34;;;18.74;72.81
55315;BME280;41619;42.816;23.226;2022-07-29T05:14:55;95654.84;;;18.77;73.00
55315;BME280;41619;42.816;23.226;2022-07-29T05:17:21;95648.50;;;18.81;72.94
55315;BME280;41619;42.816;23.226;2022-07-29T05:19:46;95650.06;;;18.82;72.66
55315;BME280;41619;42.816;23.226;2022-07-29T05:22:12;95654.00;;;18.84;72.48
55315;BME280;41619;42.816;23.226;2022-07-29T05:24:37;95669.78;;;18.87;72.53
55315;BME280;41619;42.816;23.226;2022-07-29T05:27:03;95662.25;;;18.88;72.53
55315;BME280;41619;42.816;23.226;2022-07-29T05:29:28;95663.84;;;18.89;72.36
55315;BME280;41619;42.816;23.226;2022-07-29T05:31:54;95664.19;;;18.91;72.14
55315;BME280;41619;42.816;23.226;2022-07-29T05:34:19;95668.50;;;18.95;72.32
55315;BME280;41619;42.816;23.226;2022-07-29T05:36:45;95660.16;;;18.99;71.96
55315;BME280;41619;42.816;23.226;2022-07-29T05:39:11;95671.22;;;19.02;72.03
55315;BME280;41619;42.816;23.226;2022-07-29T05:41:38;95673.56;;;19.04;72.13
55315;BME280;41619;42.816;23.226;2022-07-29T05:44:03;95678.69;;;19.05;72.05
55315;BME280;41619;42.816;23.226;2022-07-29T05:46:28;95677.50;;;19.06;72.05
55315;BME280;41619;42.816;23.226;2022-07-29T05:48:54;95674.25;;;19.12;71.94
55315;BME280;41619;42.816;23.226;2022-07-29T05:51:19;95673.75;;;19.20;71.88
55315;BME280;41619;42.816;23.226;2022-07-29T05:53:44;95674.44;;;19.28;71.78
55315;BME280;41619;42.816;23.226;2022-07-29T05:56:10;95668.03;;;19.34;71.76
55315;BME280;41619;42.816;23.226;2022-07-29T05:58:36;95667.19;;;19.38;71.42
55315;BME280;41619;42.816;23.226;2022-07-29T06:01:01;95676.97;;;19.46;71.48
55315;BME280;41619;42.816;23.226;2022-07-29T06:03:27;95675.34;;;19.48;71.43
55315;BME280;41619;42.816;23.226;2022-07-29T06:05:53;95676.91;;;19.53;71.48
55315;BME280;41619;42.816;23.226;2022-07-29T06:08:18;95676.81;;;19.60;71.19
55315;BME280;41619;42.816;23.226;2022-07-29T06:10:44;95675.47;;;19.72;71.10
55315;BME280;41619;42.816;23.226;2022-07-29T06:13:11;95664.63;;;19.81;70.93
55315;BME280;41619;42.816;23.226;2022-07-29T06:15:36;95673.09;;;19.97;70.79
55315;BME280;41619;42.816;23.226;2022-07-29T06:18:02;95667.75;;;20.10;70.48
55315;BME280;41619;42.816;23.226;2022-07-29T06:20:28;95667.91;;;20.22;70.04
55315;BME280;41619;42.816;23.226;2022-07-29T06:22:55;95677.13;;;20.43;69.84
55315;BME280;41619;42.816;23.226;2022-07-29T06:25:21;95661.69;;;20.62;69.27
55315;BME280;41619;42.816;23.226;2022-07-29T06:27:46;95665.00;;;20.76;68.77
55315;BME280;41619;42.816;23.226;2022-07-29T06:30:12;95664.81;;;20.87;68.33
55315;BME280;41619;42.816;23.226;2022-07-29T06:32:37;95664.66;;;20.94;68.02
55315;BME280;41619;42.816;23.226;2022-07-29T06:35:03;95660.53;;;21.02;67.55
55315;BME280;41619;42.816;23.226;2022-07-29T06:37:29;95666.38;;;21.08;67.33
55315;BME280;41619;42.816;23.226;2022-07-29T06:39:54;95662.38;;;21.09;66.74
55315;BME280;41619;42.816;23.226;2022-07-29T06:42:44;95659.09;;;21.14;66.40
55315;BME280;41619;42.816;23.226;2022-07-29T06:45:12;95658.13;;;21.24;66.18
55315;BME280;41619;42.816;23.226;2022-07-29T06:47:38;95658.03;;;21.28;65.91
55315;BME280;41619;42.816;23.226;2022-07-29T06:50:04;95659.09;;;21.34;65.46
55315;BME280;41619;42.816;23.226;2022-07-29T06:52:30;95651.41;;;21.41;65.25
55315;BME280;41619;42.816;23.226;2022-07-29T06:54:55;95650.88;;;21.46;64.97
55315;BME280;41619;42.816;23.226;2022-07-29T06:57:21;95651.50;;;21.54;64.67
55315;BME280;41619;42.816;23.226;2022-07-29T06:59:47;95649.19;;;21.69;64.85
55315;BME280;41619;42.816;23.226;2022-07-29T07:02:13;95650.84;;;21.83;64.35
55315;BME280;41619;42.816;23.226;2022-07-29T07:04:39;95654.53;;;21.96;64.18
55315;BME280;41619;42.816;23.226;2022-07-29T07:07:04;95646.44;;;22.01;63.58
55315;BME280;41619;42.816;23.226;2022-07-29T07:09:29;95643.34;;;22.16;63.63
55315;BME280;41619;42.816;23.226;2022-07-29T07:11:55;95635.13;;;22.25;63.20
55315;BME280;41619;42.816;23.226;2022-07-29T07:14:20;95637.56;;;22.39;62.50
55315;BME280;41619;42.816;23.226;2022-07-29T07:16:46;95628.81;;;22.53;62.44
55315;BME280;41619;42.816;23.226;2022-07-29T07:19:11;95637.06;;;22.73;62.01
55315;BME280;41619;42.816;23.226;2022-07-29T07:21:36;95632.31;;;22.86;61.11
55315;BME280;41619;42.816;23.226;2022-07-29T07:24:02;95629.69;;;22.95;60.13
55315;BME280;41619;42.816;23.226;2022-07-29T07:26:27;95641.69;;;23.09;59.71
55315;BME280;41619;42.816;23.226;2022-07-29T07:28:53;95641.50;;;23.29;60.01
55315;BME280;41619;42.816;23.226;2022-07-29T07:31:18;95632.72;;;23.43;59.50
55315;BME280;41619;42.816;23.226;2022-07-29T07:33:44;95632.63;;;23.59;59.14
55315;BME280;41619;42.816;23.226;2022-07-29T07:36:09;95639.22;;;23.78;58.46
55315;BME280;41619;42.816;23.226;2022-07-29T07:38:35;95632.41;;;23.92;57.80
55315;BME280;41619;42.816;23.226;2022-07-29T07:41:00;95636.84;;;24.14;57.07
55315;BME280;41619;42.816;23.226;2022-07-29T07:43:26;95638.63;;;24.34;56.25
55315;BME280;41619;42.816;23.226;2022-07-29T07:45:51;95640.50;;;24.50;55.19
55315;BME280;41619;42.816;23.226;2022-07-29T07:48:17;95634.75;;;24.66;54.46
55315;BME280;41619;42.816;23.226;2022-07-29T07:50:43;95627.63;;;24.87;54.49
55315;BME280;41619;42.816;23.226;2022-07-29T07:53:09;95625.91;;;25.02;53.48
55315;BME280;41619;42.816;23.226;2022-07-29T07:55:40;95616.06;;;25.19;52.95
55315;BME280;41619;42.816;23.226;2022-07-29T07:58:06;95623.41;;;25.26;52.23
55315;BME280;41619;42.816;23.226;2022-07-29T08:00:31;95616.03;;;25.41;52.52
55315;BME280;41619;42.816;23.226;2022-07-29T08:02:57;95618.00;;;25.62;51.70
55315;BME280;41619;42.816;23.226;2022-07-29T08:05:23;95622.94;;;25.80;51.26
55315;BME280;41619;42.816;23.226;2022-07-29T08:07:49;95617.41;;;25.99;50.62
55315;BME280;41619;42.816;23.226;2022-07-29T08:10:16;95617.31;;;26.11;50.07
55315;BME280;41619;42.816;23.226;2022-07-29T08:13:03;95620.59;;;26.19;49.36
55315;BME280;41619;42.816;23.226;2022-07-29T08:15:28;95614.84;;;26.32;49.46
55315;BME280;41619;42.816;23.226;2022-07-29T08:17:54;95623.66;;;26.52;48.72
55315;BME280;41619;42.816;23.226;2022-07-29T08:20:19;95616.94;;;26.59;48.25
55315;BME280;41619;42.816;23.226;2022-07-29T08:22:44;95618.97;;;26.76;48.29
55315;BME280;41619;42.816;23.226;2022-07-29T08:25:10;95628.06;;;26.99;47.73
55315;BME280;41619;42.816;23.226;2022-07-29T08:27:35;95615.28;;;27.16;47.38
55315;BME280;41619;42.816;23.226;2022-07-29T08:30:00;95619.59;;;27.44;47.07
55315;BME280;41619;42.816;23.226;2022-07-29T08:32:26;95618.59;;;27.66;46.61
55315;BME280;41619;42.816;23.226;2022-07-29T08:34:53;95623.38;;;27.84;46.05
55315;BME280;41619;42.816;23.226;2022-07-29T08:37:19;95614.41;;;28.03;45.70
55315;BME280;41619;42.816;23.226;2022-07-29T08:39:44;95617.03;;;28.07;44.70
55315;BME280;41619;42.816;23.226;2022-07-29T08:42:10;95613.00;;;28.08;43.90
55315;BME280;41619;42.816;23.226;2022-07-29T08:44:36;95613.59;;;28.12;43.85
55315;BME280;41619;42.816;23.226;2022-07-29T08:47:02;95607.91;;;28.21;43.04
55315;BME280;41619;42.816;23.226;2022-07-29T08:49:28;95614.06;;;28.11;42.61
55315;BME280;41619;42.816;23.226;2022-07-29T08:51:53;95604.56;;;28.08;42.40
55315;BME280;41619;42.816;23.226;2022-07-29T08:54:21;95601.06;;;28.13;42.16
55315;BME280;41619;42.816;23.226;2022-07-29T08:56:49;95601.22;;;28.43;42.23
55315;BME280;41619;42.816;23.226;2022-07-29T08:59:18;95603.97;;;28.76;41.99
55315;BME280;41619;42.816;23.226;2022-07-29T09:01:46;95600.06;;;28.97;41.14
55315;BME280;41619;42.816;23.226;2022-07-29T09:04:14;95583.09;;;29.06;40.25
55315;BME280;41619;42.816;23.226;2022-07-29T09:06:46;95586.00;;;29.12;40.28
55315;BME280;41619;42.816;23.226;2022-07-29T09:09:13;95591.06;;;29.37;40.38
55315;BME280;41619;42.816;23.226;2022-07-29T09:11:39;95596.06;;;29.57;39.56
55315;BME280;41619;42.816;23.226;2022-07-29T09:14:05;95589.25;;;29.78;39.66
55315;BME280;41619;42.816;23.226;2022-07-29T09:19:20;95592.78;;;30.08;38.77
55315;BME280;41619;42.816;23.226;2022-07-29T09:21:46;95587.28;;;30.34;38.82
55315;BME280;41619;42.816;23.226;2022-07-29T09:26:59;95587.78;;;30.33;37.57
55315;BME280;41619;42.816;23.226;2022-07-29T09:29:25;95582.88;;;30.13;37.70
55315;BME280;41619;42.816;23.226;2022-07-29T09:31:52;95586.09;;;30.06;37.94
55315;BME280;41619;42.816;23.226;2022-07-29T09:34:25;95589.19;;;30.08;37.82
55315;BME280;41619;42.816;23.226;2022-07-29T09:36:53;95587.25;;;30.14;38.16
55315;BME280;41619;42.816;23.226;2022-07-29T09:39:36;95580.81;;;30.13;37.19
55315;BME280;41619;42.816;23.226;2022-07-29T09:42:05;95584.03;;;30.06;37.35
55315;BME280;41619;42.816;23.226;2022-07-29T09:44:48;95575.81;;;30.23;37.62
55315;BME280;41619;42.816;23.226;2022-07-29T09:47:15;95573.28;;;30.45;36.42
55315;BME280;41619;42.816;23.226;2022-07-29T09:52:19;95566.63;;;30.63;36.03
55315;BME280;41619;42.816;23.226;2022-07-29T09:54:45;95560.34;;;30.74;36.39
55315;BME280;41619;42.816;23.226;2022-07-29T09:57:27;95557.25;;;30.98;35.87
55315;BME280;41619;42.816;23.226;2022-07-29T10:02:31;95555.03;;;31.59;35.46
55315;BME280;41619;42.816;23.226;2022-07-29T10:04:58;95547.88;;;31.64;34.76
55315;BME280;41619;42.816;23.226;2022-07-29T10:07:24;95547.41;;;31.40;35.08
55315;BME280;41619;42.816;23.226;2022-07-29T10:09:53;95537.97;;;31.48;35.43
55315;BME280;41619;42.816;23.226;2022-07-29T10:12:19;95533.06;;;31.75;34.77
55315;BME280;41619;42.816;23.226;2022-07-29T10:14:45;95531.94;;;31.98;34.44
55315;BME280;41619;42.816;23.226;2022-07-29T10:17:10;95537.19;;;32.16;34.08
55315;BME280;41619;42.816;23.226;2022-07-29T10:19:37;95531.63;;;32.28;33.16
55315;BME280;41619;42.816;23.226;2022-07-29T10:22:06;95526.44;;;32.26;33.47
55315;BME280;41619;42.816;23.226;2022-07-29T10:24:32;95532.22;;;32.43;33.00
55315;BME280;41619;42.816;23.226;2022-07-29T10:27:00;95530.72;;;32.53;32.46
55315;BME280;41619;42.816;23.226;2022-07-29T10:29:26;95530.72;;;32.53;32.28
55315;BME280;41619;42.816;23.226;2022-07-29T10:32:06;95509.88;;;32.56;31.91
55315;BME280;41619;42.816;23.226;2022-07-29T10:43:29;95501.44;;;32.73;31.59
55315;BME280;41619;42.816;23.226;2022-07-29T10:45:57;95502.50;;;32.87;31.69
55315;BME280;41619;42.816;23.226;2022-07-29T10:48:23;95496.88;;;32.98;31.67
55315;BME280;41619;42.816;23.226;2022-07-29T10:50:57;95494.34;;;33.17;31.26
55315;BME280;41619;42.816;23.226;2022-07-29T10:53:24;95486.09;;;33.30;31.02
55315;BME280;41619;42.816;23.226;2022-07-29T10:56:29;95491.25;;;33.31;29.88
55315;BME280;41619;42.816;23.226;2022-07-29T11:01:45;95484.06;;;33.53;30.20
55315;BME280;41619;42.816;23.226;2022-07-29T11:04:11;95476.06;;;33.57;29.74
55315;BME280;41619;42.816;23.226;2022-07-29T11:09:30;95476.28;;;33.64;29.92
55315;BME280;41619;42.816;23.226;2022-07-29T11:11:56;95469.34;;;33.60;29.52
55315;BME280;41619;42.816;23.226;2022-07-29T11:14:58;95468.31;;;33.63;29.73
55315;BME280;41619;42.816;23.226;2022-07-29T11:17:26;95461.84;;;33.73;29.50
55315;BME280;41619;42.816;23.226;2022-07-29T11:21:12;95461.59;;;33.88;29.39
55315;BME280;41619;42.816;23.226;2022-07-29T11:23:27;95467.78;;;33.92;28.73
55315;BME280;41619;42.816;23.226;2022-07-29T11:26:17;95461.31;;;33.81;28.88
55315;BME280;41619;42.816;23.226;2022-07-29T11:29:19;95468.53;;;33.93;28.92
55315;BME280;41619;42.816;23.226;2022-07-29T11:31:47;95465.97;;;33.89;28.35
55315;BME280;41619;42.816;23.226;2022-07-29T11:34:32;95464.44;;;33.88;28.21
55315;BME280;41619;42.816;23.226;2022-07-29T11:39:36;95449.66;;;34.07;28.75
55315;BME280;41619;42.816;23.226;2022-07-29T11:44:55;95451.66;;;34.28;28.33
55315;BME280;41619;42.816;23.226;2022-07-29T11:47:22;95444.13;;;34.42;28.65
55315;BME280;41619;42.816;23.226;2022-07-29T11:49:48;95437.63;;;34.53;28.19
55315;BME280;41619;42.816;23.226;2022-07-29T11:52:16;95436.84;;;34.52;28.11
55315;BME280;41619;42.816;23.226;2022-07-29T11:54:42;95435.34;;;34.35;28.15
55315;BME280;41619;42.816;23.226;2022-07-29T11:57:08;95441.31;;;34.37;28.31
55315;BME280;41619;42.816;23.226;2022-07-29T11:59:41;95433.03;;;34.44;27.74
55315;BME280;41619;42.816;23.226;2022-07-29T12:02:07;95435.53;;;34.53;28.00
55315;BME280;41619;42.816;23.226;2022-07-29T12:04:56;95435.31;;;34.51;28.08
55315;BME280;41619;42.816;23.226;2022-07-29T12:07:30;95442.78;;;34.54;27.95
55315;BME280;41619;42.816;23.226;2022-07-29T12:09:55;95433.72;;;34.56;27.26
55315;BME280;41619;42.816;23.226;2022-07-29T12:12:21;95431.97;;;34.47;27.60
55315;BME280;41619;42.816;23.226;2022-07-29T12:14:48;95434.31;;;34.38;27.22
55315;BME280;41619;42.816;23.226;2022-07-29T12:17:32;95425.38;;;34.11;26.57
55315;BME280;41619;42.816;23.226;2022-07-29T12:20:03;95435.00;;;33.91;27.93
55315;BME280;41619;42.816;23.226;2022-07-29T12:22:34;95427.22;;;34.03;27.51
55315;BME280;41619;42.816;23.226;2022-07-29T12:25:10;95430.28;;;34.11;27.91
55315;BME280;41619;42.816;23.226;2022-07-29T12:27:37;95427.44;;;34.11;27.58
55315;BME280;41619;42.816;23.226;2022-07-29T12:30:08;95426.13;;;34.17;28.05
55315;BME280;41619;42.816;23.226;2022-07-29T12:32:40;95417.59;;;34.23;27.05
55315;BME280;41619;42.816;23.226;2022-07-29T12:35:11;95406.28;;;34.12;27.41
55315;BME280;41619;42.816;23.226;2022-07-29T12:37:38;95405.28;;;34.04;27.70
55315;BME280;41619;42.816;23.226;2022-07-29T12:40:05;95404.00;;;34.05;27.35
55315;BME280;41619;42.816;23.226;2022-07-29T12:42:32;95399.13;;;33.94;27.91
55315;BME280;41619;42.816;23.226;2022-07-29T12:44:58;95403.00;;;33.80;27.93
55315;BME280;41619;42.816;23.226;2022-07-29T12:47:23;95404.84;;;33.66;27.66
55315;BME280;41619;42.816;23.226;2022-07-29T12:49:50;95395.06;;;33.67;27.98
55315;BME280;41619;42.816;23.226;2022-07-29T12:52:30;95394.22;;;33.78;27.96
55315;BME280;41619;42.816;23.226;2022-07-29T12:54:55;95398.66;;;33.84;27.52
55315;BME280;41619;42.816;23.226;2022-07-29T12:57:21;95388.84;;;33.74;28.03
55315;BME280;41619;42.816;23.226;2022-07-29T13:00:09;95385.47;;;33.76;27.46
55315;BME280;41619;42.816;23.226;2022-07-29T13:02:37;95382.09;;;33.77;27.48
55315;BME280;41619;42.816;23.226;2022-07-29T13:05:03;95380.03;;;33.78;27.54
55315;BME280;41619;42.816;23.226;2022-07-29T13:07:31;95366.16;;;33.68;27.76
55315;BME280;41619;42.816;23.226;2022-07-29T13:10:18;95369.00;;;33.68;27.62
55315;BME280;41619;42.816;23.226;2022-07-29T13:13:03;95366.19;;;33.52;27.76
55315;BME280;41619;42.816;23.226;2022-07-29T13:15:30;95357.41;;;33.44;27.62
55315;BME280;41619;42.816;23.226;2022-07-29T13:17:56;95368.25;;;33.46;28.17
55315;BME280;41619;42.816;23.226;2022-07-29T13:20:26;95360.28;;;33.38;27.91
55315;BME280;41619;42.816;23.226;2022-07-29T13:22:55;95369.56;;;33.39;28.19
55315;BME280;41619;42.816;23.226;2022-07-29T13:25:30;95361.81;;;33.28;27.91
55315;BME280;41619;42.816;23.226;2022-07-29T13:27:57;95358.50;;;33.02;27.65
55315;BME280;41619;42.816;23.226;2022-07-29T13:30:23;95349.16;;;32.68;28.22
55315;BME280;41619;42.816;23.226;2022-07-29T13:32:49;95347.88;;;32.69;28.60
55315;BME280;41619;42.816;23.226;2022-07-29T13:35:14;95352.81;;;32.74;28.70
55315;BME280;41619;42.816;23.226;2022-07-29T13:37:40;95348.44;;;32.73;28.54
55315;BME280;41619;42.816;23.226;2022-07-29T13:40:07;95342.72;;;32.67;28.88
55315;BME280;41619;42.816;23.226;2022-07-29T13:42:33;95333.97;;;32.71;28.93